Atlanta, Mississippi
Current Conditions -  °F | °C
As of 2:15 AM on Sunday 23 Nov 2014 (Local Time) from KSTF Reporting Station
Overcast Overcast  
Wind Chill: 57°   Ceiling: 1000
Heat Index: 57°   Visibility: NA
Dew Point: 54°   Wind: 9mph
Humidity: 88%   Direction: 130°SE
Pressure: 29.89"   Gusts: 16mph
Location:  33.7962°N, 89.0553°W
Report Text: KSTF 230815Z AUTO 13008G14KT OVC010 14/12 A2989 RMK AO2 PWINO
Loading
Personal Weather Stations






























Interactive Weather Map New forecast layout! Learn more

10-Day Weather Forecast

Advertisements
Track Severe Weather on mobile